Time;durP1;ratioP1;P1;durP2;ratioP2;P2;SDS_P1;SDS_P2;PMS_P1;PMS_P2;Temp;Humidity;BMP_temperature;BMP_pressure;BME280_temperature;BME280_humidity;BME280_pressure;Samples;Min_cycle;Max_cycle;Signal;HPM_P1;HPM_P2
2021/12/01 00:02:25;;;;;;;1.40;0.90;;;21.50;43.40;;;;;;5024750;28;20040;-56
2021/12/01 00:04:51;;;;;;;2.10;1.15;;;21.50;43.40;;;;;;5017610;28;20048;-52
2021/12/01 00:07:17;;;;;;;1.63;0.90;;;21.50;43.40;;;;;;5024568;28;20385;-53
2021/12/01 00:09:43;;;;;;;2.08;0.88;;;21.50;43.40;;;;;;5026362;28;20026;-52
2021/12/01 00:12:09;;;;;;;2.25;0.95;;;21.50;43.40;;;;;;5025531;28;20052;-49
2021/12/01 00:14:35;;;;;;;2.47;1.00;;;21.50;43.40;;;;;;5022305;28;20122;-48
2021/12/01 00:17:01;;;;;;;1.08;0.80;;;21.50;43.40;;;;;;5003932;28;20136;-50
2021/12/01 00:19:29;;;;;;;1.90;0.93;;;21.50;43.50;;;;;;5018689;28;20034;-51
2021/12/01 00:21:56;;;;;;;1.70;0.70;;;21.40;43.40;;;;;;5026159;28;20025;-53
2021/12/01 00:24:22;;;;;;;1.30;0.75;;;21.40;43.50;;;;;;5022679;28;20065;-49
2021/12/01 00:26:47;;;;;;;1.38;0.90;;;21.40;43.50;;;;;;5025796;28;20134;-51
2021/12/01 00:29:13;;;;;;;0.90;0.80;;;21.40;43.50;;;;;;5021964;28;20029;-55
2021/12/01 00:31:41;;;;;;;1.15;0.65;;;21.40;43.50;;;;;;5019044;28;20037;-50
2021/12/01 00:34:07;;;;;;;0.88;0.57;;;21.40;43.50;;;;;;5022648;28;20060;-50
2021/12/01 00:36:33;;;;;;;1.05;0.60;;;21.40;43.60;;;;;;5024331;28;20661;-48
2021/12/01 00:38:59;;;;;;;0.50;0.50;;;21.40;43.60;;;;;;5025073;28;20032;-53
2021/12/01 00:41:25;;;;;;;0.57;0.40;;;21.40;43.60;;;;;;5022936;28;20026;-49
2021/12/01 00:43:52;;;;;;;0.98;0.55;;;21.40;43.70;;;;;;5021025;28;20029;-49
2021/12/01 00:46:24;;;;;;;1.15;0.50;;;21.40;43.70;;;;;;5026205;28;20117;-49
2021/12/01 00:48:51;;;;;;;0.57;0.45;;;21.40;43.70;;;;;;5022413;28;20057;-50
2021/12/01 00:51:17;;;;;;;0.68;0.52;;;21.40;43.70;;;;;;5024374;28;20033;-52
2021/12/01 00:53:44;;;;;;;0.60;0.43;;;21.40;43.80;;;;;;5021468;28;20018;-49
2021/12/01 00:56:10;;;;;;;0.40;0.30;;;21.40;43.80;;;;;;5021978;28;20037;-50
2021/12/01 00:58:36;;;;;;;0.88;0.40;;;21.40;43.80;;;;;;5024729;28;20030;-54
2021/12/01 01:01:03;;;;;;;0.47;0.40;;;21.40;43.80;;;;;;5023336;28;20053;-55
2021/12/01 01:03:31;;;;;;;0.63;0.40;;;21.40;43.90;;;;;;5024400;28;20022;-53
2021/12/01 01:05:57;;;;;;;0.47;0.40;;;21.40;43.90;;;;;;5023672;28;20048;-48
2021/12/01 01:08:24;;;;;;;1.40;0.45;;;21.40;43.90;;;;;;5018183;28;20029;-51
2021/12/01 01:16:23;;;;;;;0.20;0.20;;;21.40;44.00;;;;;;5022078;28;20037;-54
2021/12/01 01:19:07;;;;;;;0.50;0.20;;;21.30;44.00;;;;;;5023055;28;20398;-55
2021/12/01 01:21:39;;;;;;;0.57;0.40;;;21.30;44.60;;;;;;5025023;28;20017;-50
2021/12/01 01:24:05;;;;;;;0.60;0.20;;;21.30;44.00;;;;;;5021006;28;20029;-51
2021/12/01 01:26:35;;;;;;;0.60;0.25;;;21.30;44.00;;;;;;5023942;28;20083;-50
2021/12/01 01:29:02;;;;;;;0.68;0.30;;;21.30;44.00;;;;;;5023122;28;20029;-48
2021/12/01 01:31:28;;;;;;;0.20;0.20;;;21.30;44.10;;;;;;5018388;28;20034;-51
2021/12/01 01:33:53;;;;;;;0.52;0.30;;;21.30;44.00;;;;;;5025892;28;20104;-51
2021/12/01 01:36:20;;;;;;;0.35;0.30;;;21.30;44.00;;;;;;5021344;28;20044;-52
2021/12/01 01:38:46;;;;;;;0.65;0.30;;;21.30;44.10;;;;;;5026240;28;20032;-48
2021/12/01 01:41:13;;;;;;;0.70;0.40;;;21.30;44.10;;;;;;5019456;28;20095;-49
2021/12/01 01:43:41;;;;;;;0.75;0.30;;;21.30;44.10;;;;;;5021815;28;20026;-49
2021/12/01 01:46:08;;;;;;;0.20;0.20;;;21.30;44.10;;;;;;5023463;28;20070;-50
2021/12/01 01:48:45;;;;;;;0.30;0.20;;;21.30;44.10;;;;;;5018255;28;20038;-53
2021/12/01 01:51:12;;;;;;;0.40;0.28;;;21.30;44.10;;;;;;5022923;28;20348;-50
2021/12/01 01:53:39;;;;;;;0.30;0.20;;;21.20;44.10;;;;;;5018602;28;20033;-53
2021/12/01 01:56:06;;;;;;;0.60;0.20;;;21.20;44.10;;;;;;5020890;28;20124;-53
2021/12/01 01:58:33;;;;;;;0.28;0.10;;;21.20;44.10;;;;;;5025310;28;20038;-51
2021/12/01 02:01:06;;;;;;;0.90;0.35;;;21.20;44.10;;;;;;5020289;28;20049;-46
2021/12/01 02:03:38;;;;;;;0.25;0.20;;;21.20;44.10;;;;;;5022507;28;20052;-48
2021/12/01 02:06:06;;;;;;;0.40;0.22;;;21.20;44.10;;;;;;5028338;28;20037;-51
2021/12/01 02:08:34;;;;;;;0.75;0.30;;;21.20;44.10;;;;;;5022744;28;20025;-52
2021/12/01 02:11:03;;;;;;;0.75;0.20;;;21.20;44.10;;;;;;5025955;28;20029;-48
2021/12/01 02:13:29;;;;;;;0.28;0.20;;;21.20;44.10;;;;;;5029001;28;20018;-53
2021/12/01 02:15:57;;;;;;;0.10;0.10;;;21.20;44.10;;;;;;5031695;28;20037;-51
2021/12/01 02:18:26;;;;;;;0.73;0.30;;;21.20;44.10;;;;;;5029502;28;20449;-56
2021/12/01 02:21:30;;;;;;;1.23;0.38;;;21.20;44.40;;;;;;5024020;28;20108;-51
2021/12/01 02:24:00;;;;;;;0.37;0.17;;;21.20;44.10;;;;;;5024718;28;20029;-50
2021/12/01 02:26:27;;;;;;;0.47;0.20;;;21.20;44.10;;;;;;5026167;28;20033;-50
2021/12/01 02:28:57;;;;;;;0.40;0.10;;;21.20;44.20;;;;;;5026542;28;20036;-50
2021/12/01 02:31:28;;;;;;;0.55;0.20;;;21.20;44.10;;;;;;5021180;28;20327;-54
2021/12/01 02:33:55;;;;;;;0.10;0.10;;;21.20;44.10;;;;;;5024714;28;20029;-52
2021/12/01 02:36:21;;;;;;;0.38;0.30;;;21.20;44.10;;;;;;5024955;28;20104;-51
2021/12/01 02:38:49;;;;;;;0.20;0.20;;;21.20;44.10;;;;;;5027548;28;20052;-53
2021/12/01 02:41:16;;;;;;;0.22;0.15;;;21.20;44.10;;;;;;5026225;28;20026;-49
2021/12/01 02:43:45;;;;;;;0.15;0.10;;;21.20;44.10;;;;;;5029043;28;20053;-51
2021/12/01 02:46:10;;;;;;;0.50;0.20;;;21.10;44.00;;;;;;5025431;28;20168;-52
2021/12/01 02:48:41;;;;;;;0.20;0.20;;;21.20;44.10;;;;;;5020745;28;20113;-50
2021/12/01 02:51:09;;;;;;;0.30;0.10;;;21.10;44.00;;;;;;5027182;28;20040;-54
2021/12/01 02:53:36;;;;;;;0.32;0.20;;;21.10;44.00;;;;;;5024360;28;20041;-54
2021/12/01 02:56:04;;;;;;;0.52;0.20;;;21.10;44.00;;;;;;5024733;28;20030;-53
2021/12/01 02:58:32;;;;;;;0.15;0.10;;;21.20;44.00;;;;;;5026047;28;20033;-51
2021/12/01 03:01:05;;;;;;;0.10;0.10;;;21.10;44.00;;;;;;5024336;28;20051;-50
2021/12/01 03:03:31;;;;;;;0.20;0.20;;;21.10;44.00;;;;;;5026193;28;20087;-50
2021/12/01 03:05:58;;;;;;;0.17;0.13;;;21.10;43.90;;;;;;5028419;28;20101;-54
2021/12/01 03:08:24;;;;;;;0.20;0.20;;;21.10;43.90;;;;;;5027040;28;20324;-45
2021/12/01 03:10:53;;;;;;;0.32;0.10;;;21.10;43.90;;;;;;5024502;28;20040;-48
2021/12/01 03:13:20;;;;;;;0.03;0.03;;;21.10;43.90;;;;;;5024199;28;20036;-48
2021/12/01 03:15:47;;;;;;;0.20;0.10;;;21.10;43.90;;;;;;5024758;28;20128;-53
2021/12/01 03:18:14;;;;;;;0.10;0.10;;;21.10;43.90;;;;;;5019677;28;20033;-48
2021/12/01 03:20:41;;;;;;;0.10;0.10;;;21.10;43.90;;;;;;5023663;28;20407;-54
2021/12/01 03:23:07;;;;;;;0.10;0.10;;;21.10;43.90;;;;;;5026660;28;20460;-51
2021/12/01 03:25:33;;;;;;;0.10;0.10;;;21.10;43.90;;;;;;5024653;28;20047;-53
2021/12/01 03:28:00;;;;;;;0.10;0.10;;;21.00;43.90;;;;;;5027297;28;20034;-51
2021/12/01 03:30:26;;;;;;;0.52;0.20;;;21.00;43.80;;;;;;5020981;28;20441;-54
2021/12/01 03:32:52;;;;;;;0.20;0.10;;;21.10;43.90;;;;;;5024297;28;20049;-48
2021/12/01 03:35:19;;;;;;;0.15;0.08;;;21.00;43.80;;;;;;5027339;28;20026;-52
2021/12/01 03:37:46;;;;;;;0.00;0.00;;;21.00;43.80;;;;;;5022363;28;20132;-49
2021/12/01 03:40:14;;;;;;;0.20;0.10;;;21.00;43.80;;;;;;5029395;28;20101;-51
2021/12/01 03:42:43;;;;;;;0.20;0.10;;;21.00;43.80;;;;;;5030398;28;20022;-54
2021/12/01 03:45:12;;;;;;;0.40;0.10;;;21.00;43.80;;;;;;5024285;28;20456;-52
2021/12/01 03:47:38;;;;;;;0.20;0.13;;;21.00;43.80;;;;;;5024023;28;20116;-48
2021/12/01 03:50:04;;;;;;;0.38;0.08;;;21.00;43.70;;;;;;5023082;28;20159;-50
2021/12/01 03:52:31;;;;;;;0.00;0.00;;;20.90;43.60;;;;;;5024461;28;20052;-47
2021/12/01 03:54:56;;;;;;;0.15;0.10;;;21.00;43.70;;;;;;5024781;28;20025;-49
2021/12/01 03:57:23;;;;;;;0.38;0.10;;;21.00;43.70;;;;;;5029757;28;20034;-48
2021/12/01 03:59:49;;;;;;;0.15;0.10;;;21.00;43.70;;;;;;5027066;28;20022;-52
2021/12/01 04:02:15;;;;;;;0.10;0.08;;;21.00;43.60;;;;;;5026093;28;20053;-51
2021/12/01 04:04:41;;;;;;;0.10;0.10;;;21.00;43.60;;;;;;5022661;28;20041;-49
2021/12/01 04:07:07;;;;;;;0.20;0.20;;;21.00;43.70;;;;;;5025446;28;20099;-54
2021/12/01 04:09:35;;;;;;;0.08;0.08;;;20.90;43.60;;;;;;5025895;28;20025;-51
2021/12/01 04:12:01;;;;;;;0.30;0.10;;;21.00;43.60;;;;;;5022199;28;20026;-54
2021/12/01 04:14:27;;;;;;;0.10;0.10;;;20.90;43.60;;;;;;5022624;28;20029;-49
2021/12/01 04:16:53;;;;;;;0.10;0.10;;;20.90;43.50;;;;;;5025997;28;20029;-50
2021/12/01 04:19:19;;;;;;;0.30;0.17;;;20.90;43.50;;;;;;5021932;28;20033;-53
2021/12/01 04:21:45;;;;;;;0.10;0.10;;;20.90;43.50;;;;;;5023946;28;20045;-49
2021/12/01 04:24:11;;;;;;;0.00;0.00;;;20.90;43.50;;;;;;5022475;28;20410;-51
2021/12/01 04:26:37;;;;;;;0.10;0.10;;;20.90;43.40;;;;;;5022341;28;20033;-51
2021/12/01 04:29:04;;;;;;;0.68;0.20;;;20.90;43.40;;;;;;5026331;28;20738;-50
2021/12/01 04:31:33;;;;;;;0.08;0.08;;;20.90;43.40;;;;;;5023623;28;20033;-49
2021/12/01 04:34:00;;;;;;;0.00;0.00;;;20.90;43.30;;;;;;5023046;28;20448;-49
2021/12/01 04:36:33;;;;;;;0.10;0.10;;;20.90;43.30;;;;;;5023025;28;20033;-47
2021/12/01 04:38:59;;;;;;;0.10;0.10;;;20.90;43.30;;;;;;5022537;28;20026;-52
2021/12/01 04:41:27;;;;;;;0.45;0.10;;;20.90;43.20;;;;;;5026412;28;20125;-47
2021/12/01 04:43:53;;;;;;;0.10;0.10;;;20.90;43.20;;;;;;5020956;28;20030;-49
2021/12/01 04:46:20;;;;;;;0.10;0.10;;;20.90;43.20;;;;;;5023450;28;20071;-51
2021/12/01 04:48:49;;;;;;;0.10;0.10;;;20.90;43.20;;;;;;5028280;28;20036;-51
2021/12/01 04:51:17;;;;;;;0.10;0.10;;;20.80;43.10;;;;;;5023020;28;20096;-51
2021/12/01 04:53:44;;;;;;;0.10;0.10;;;20.90;43.10;;;;;;5022560;28;20034;-48
2021/12/01 04:56:10;;;;;;;0.20;0.10;;;20.80;43.00;;;;;;5024953;28;20588;-53
2021/12/01 04:58:36;;;;;;;0.15;0.15;;;20.80;43.00;;;;;;5024029;28;20096;-51
2021/12/01 05:01:03;;;;;;;0.28;0.10;;;20.80;43.00;;;;;;5022543;28;20041;-50
2021/12/01 05:03:30;;;;;;;0.20;0.10;;;20.80;42.90;;;;;;5024177;28;20022;-52
2021/12/01 05:05:56;;;;;;;1.25;0.28;;;20.80;42.90;;;;;;5024407;28;20037;-48
2021/12/01 05:08:23;;;;;;;0.43;0.20;;;20.80;42.90;;;;;;5025269;28;20036;-51
2021/12/01 05:10:50;;;;;;;0.10;0.10;;;20.80;42.80;;;;;;5025594;28;20464;-54
2021/12/01 05:13:16;;;;;;;0.20;0.10;;;20.80;42.80;;;;;;5017980;28;20025;-51
2021/12/01 05:15:42;;;;;;;0.30;0.20;;;20.80;42.80;;;;;;5026098;28;20030;-52
2021/12/01 05:18:08;;;;;;;0.15;0.15;;;20.80;42.80;;;;;;5019076;28;20133;-50
2021/12/01 05:20:39;;;;;;;0.17;0.10;;;20.80;42.80;;;;;;5021897;28;20025;-49
2021/12/01 05:23:05;;;;;;;0.30;0.25;;;20.80;42.80;;;;;;5022839;28;20068;-53
2021/12/01 05:25:30;;;;;;;0.10;0.10;;;20.70;42.70;;;;;;5021019;28;20054;-50
2021/12/01 05:27:56;;;;;;;0.20;0.20;;;20.80;42.70;;;;;;5021337;28;20034;-49
2021/12/01 05:30:22;;;;;;;0.10;0.10;;;20.70;42.70;;;;;;5019708;28;20030;-51
2021/12/01 05:32:48;;;;;;;0.10;0.10;;;20.70;42.70;;;;;;5023981;28;20033;-50
2021/12/01 05:35:14;;;;;;;0.17;0.17;;;20.70;42.70;;;;;;5023422;28;20105;-52
2021/12/01 05:37:40;;;;;;;0.22;0.22;;;20.80;42.70;;;;;;5023809;28;20091;-53
2021/12/01 05:40:06;;;;;;;0.20;0.20;;;20.70;42.70;;;;;;5027297;28;20030;-49
2021/12/01 05:42:32;;;;;;;0.30;0.20;;;20.70;42.60;;;;;;5024705;28;20036;-53
2021/12/01 05:44:58;;;;;;;0.30;0.20;;;20.70;43.30;;;;;;5030627;28;20108;-52
2021/12/01 05:47:24;;;;;;;0.10;0.10;;;20.70;42.60;;;;;;5029737;28;20083;-52
2021/12/01 05:49:50;;;;;;;0.22;0.20;;;20.70;42.60;;;;;;5028844;28;20109;-52
2021/12/01 05:52:16;;;;;;;0.10;0.10;;;20.70;42.60;;;;;;5024494;28;20029;-49
2021/12/01 05:54:43;;;;;;;0.30;0.13;;;20.70;42.60;;;;;;5027032;28;20042;-46
2021/12/01 05:57:10;;;;;;;0.35;0.20;;;20.70;42.60;;;;;;5029259;28;20042;-48
2021/12/01 05:59:36;;;;;;;0.10;0.10;;;20.70;42.60;;;;;;5023754;28;20032;-54
2021/12/01 06:02:02;;;;;;;0.20;0.20;;;20.70;42.60;;;;;;5026933;28;20034;-54
2021/12/01 06:04:28;;;;;;;0.43;0.20;;;20.60;42.60;;;;;;5024636;28;20468;-51
2021/12/01 06:06:54;;;;;;;0.28;0.20;;;20.70;42.70;;;;;;5029556;28;20040;-52
2021/12/01 06:09:19;;;;;;;0.20;0.10;;;20.70;42.60;;;;;;5028815;28;20017;-49
2021/12/01 06:11:47;;;;;;;0.10;0.10;;;20.60;42.60;;;;;;5025305;28;20029;-51
2021/12/01 06:14:15;;;;;;;0.10;0.10;;;20.60;42.60;;;;;;5027704;28;20038;-54
2021/12/01 06:16:42;;;;;;;0.20;0.20;;;20.60;42.60;;;;;;5027638;28;20128;-52
2021/12/01 06:19:08;;;;;;;0.20;0.10;;;20.60;42.60;;;;;;5027232;28;20030;-52
2021/12/01 06:21:34;;;;;;;0.20;0.10;;;20.60;42.60;;;;;;5026996;28;20341;-51
2021/12/01 06:24:00;;;;;;;0.20;0.10;;;20.60;42.60;;;;;;5026928;28;20611;-54
2021/12/01 06:26:26;;;;;;;0.10;0.10;;;20.60;42.60;;;;;;5026298;28;20101;-49
2021/12/01 06:28:51;;;;;;;0.30;0.10;;;20.60;42.60;;;;;;5025571;28;20104;-48
2021/12/01 06:31:18;;;;;;;0.10;0.10;;;20.60;42.50;;;;;;5024577;28;20026;-48
2021/12/01 06:33:44;;;;;;;0.10;0.10;;;20.60;42.50;;;;;;5030508;28;20034;-50
2021/12/01 06:36:10;;;;;;;0.10;0.10;;;20.60;42.50;;;;;;5024120;28;20088;-51
2021/12/01 06:38:36;;;;;;;0.22;0.10;;;20.60;42.50;;;;;;5025757;28;20080;-52
2021/12/01 06:41:02;;;;;;;0.10;0.10;;;20.60;42.60;;;;;;5021750;28;20132;-53
2021/12/01 06:43:28;;;;;;;0.32;0.10;;;20.60;42.60;;;;;;5020795;28;20041;-50
2021/12/01 06:45:54;;;;;;;0.10;0.10;;;20.50;42.50;;;;;;5022621;28;20018;-50
2021/12/01 06:48:21;;;;;;;0.10;0.10;;;20.60;42.60;;;;;;5023616;28;20034;-55
2021/12/01 06:50:47;;;;;;;0.40;0.03;;;20.50;42.50;;;;;;5028916;28;20030;-53
2021/12/01 06:53:12;;;;;;;0.13;0.10;;;20.50;42.50;;;;;;5025733;28;20464;-50
2021/12/01 06:55:38;;;;;;;0.10;0.10;;;20.50;42.50;;;;;;5028211;28;20026;-50
2021/12/01 06:58:04;;;;;;;0.10;0.10;;;20.50;42.50;;;;;;5026848;28;20412;-53
2021/12/01 07:00:30;;;;;;;0.10;0.10;;;20.50;42.60;;;;;;5022910;28;20042;-50
2021/12/01 07:02:56;;;;;;;0.10;0.10;;;20.50;42.60;;;;;;5025037;28;20034;-47
2021/12/01 07:05:22;;;;;;;0.10;0.10;;;20.50;42.60;;;;;;5024990;28;20025;-50
2021/12/01 07:07:48;;;;;;;0.03;0.00;;;20.50;42.60;;;;;;5028511;28;20022;-51
2021/12/01 07:10:15;;;;;;;0.10;0.10;;;20.50;42.60;;;;;;5022007;28;20053;-51
2021/12/01 07:12:42;;;;;;;0.35;0.10;;;20.50;42.60;;;;;;5021435;28;20456;-49
2021/12/01 07:15:10;;;;;;;0.13;0.13;;;20.50;42.60;;;;;;5020333;28;20033;-52
2021/12/01 07:17:36;;;;;;;0.17;0.10;;;20.50;42.60;;;;;;5033182;28;20384;-52
2021/12/01 07:20:04;;;;;;;0.15;0.10;;;20.50;42.70;;;;;;5023926;28;20483;-53
2021/12/01 07:22:30;;;;;;;0.10;0.10;;;20.50;42.70;;;;;;5025973;28;20064;-51
2021/12/01 07:24:55;;;;;;;0.00;0.00;;;20.50;42.70;;;;;;5023667;28;20065;-54
2021/12/01 07:27:21;;;;;;;0.05;0.05;;;20.50;42.80;;;;;;5023128;28;20446;-53
2021/12/01 07:29:47;;;;;;;0.10;0.10;;;20.50;42.80;;;;;;5024216;28;20029;-49
2021/12/01 07:32:13;;;;;;;0.13;0.13;;;20.50;42.90;;;;;;5025885;28;20018;-51
2021/12/01 07:34:42;;;;;;;0.10;0.10;;;20.50;42.90;;;;;;5023371;28;20460;-49
2021/12/01 07:37:13;;;;;;;0.00;0.00;;;20.50;42.90;;;;;;5024374;28;20049;-48
2021/12/01 07:39:39;;;;;;;0.10;0.10;;;20.50;42.90;;;;;;5020243;28;20218;-51
2021/12/01 07:42:06;;;;;;;0.20;0.15;;;20.50;43.60;;;;;;5022986;28;20060;-54
2021/12/01 07:44:32;;;;;;;1.55;0.10;;;20.50;43.00;;;;;;5027702;28;20107;-61
2021/12/01 07:46:58;;;;;;;0.10;0.10;;;20.60;43.00;;;;;;5026528;28;20087;-57
2021/12/01 07:49:25;;;;;;;0.25;0.20;;;20.60;43.00;;;;;;5023271;28;20030;-55
2021/12/01 07:51:52;;;;;;;1.27;0.40;;;20.70;43.00;;;;;;5026977;28;20429;-54
2021/12/01 07:54:18;;;;;;;0.93;0.30;;;20.70;42.90;;;;;;5021029;28;20092;-49
2021/12/01 07:56:44;;;;;;;1.40;0.47;;;20.70;42.90;;;;;;5009686;28;20112;-50
2021/12/01 07:59:14;;;;;;;1.33;0.50;;;20.70;42.90;;;;;;5016786;28;20461;-50
2021/12/01 08:01:41;;;;;;;1.08;0.40;;;20.70;42.90;;;;;;5014938;28;20042;-49
2021/12/01 08:04:07;;;;;;;2.42;0.57;;;20.80;43.00;;;;;;5019729;28;20053;-61
2021/12/01 08:06:33;;;;;;;2.38;0.63;;;20.90;42.90;;;;;;5018204;28;20026;-52
2021/12/01 08:09:00;;;;;;;1.13;0.50;;;20.90;42.80;;;;;;5023215;28;20038;-47
2021/12/01 08:11:27;;;;;;;1.75;0.40;;;21.00;42.80;;;;;;5021392;28;20038;-46
2021/12/01 08:13:53;;;;;;;1.70;0.55;;;21.10;42.70;;;;;;5027217;28;20029;-49
2021/12/01 08:16:19;;;;;;;1.15;0.55;;;21.20;42.60;;;;;;5017121;28;20017;-50
2021/12/01 08:18:51;;;;;;;1.63;0.60;;;21.30;42.50;;;;;;5025178;28;20029;-48
2021/12/01 08:21:17;;;;;;;1.63;0.47;;;21.40;42.30;;;;;;5020142;28;20125;-49
2021/12/01 08:23:43;;;;;;;1.00;0.43;;;21.60;42.30;;;;;;5022037;28;20032;-53
2021/12/01 08:26:09;;;;;;;1.45;0.43;;;21.70;42.10;;;;;;5022580;28;20037;-54
2021/12/01 08:28:35;;;;;;;2.53;0.60;;;21.80;42.00;;;;;;5026374;28;20629;-50
2021/12/01 08:31:01;;;;;;;1.40;0.47;;;21.90;41.90;;;;;;5023848;28;20038;-53
2021/12/01 08:33:27;;;;;;;0.45;0.30;;;22.00;41.80;;;;;;5024558;28;20140;-51
2021/12/01 08:35:52;;;;;;;1.65;0.68;;;22.00;41.60;;;;;;5029599;28;20029;-51
2021/12/01 08:38:18;;;;;;;1.55;0.45;;;22.10;41.50;;;;;;5035302;28;20133;-56
2021/12/01 08:40:44;;;;;;;0.88;0.50;;;22.30;41.40;;;;;;5033691;28;20026;-53
2021/12/01 08:43:10;;;;;;;0.52;0.32;;;22.30;41.20;;;;;;5034733;28;20049;-49
2021/12/01 08:45:36;;;;;;;1.13;0.50;;;22.50;41.20;;;;;;5024471;28;20072;-52
2021/12/01 08:48:04;;;;;;;1.08;0.40;;;22.50;41.10;;;;;;5021544;28;20109;-51
2021/12/01 08:50:30;;;;;;;1.17;0.40;;;22.60;41.00;;;;;;5023194;28;20025;-53
2021/12/01 08:52:58;;;;;;;1.23;0.50;;;22.60;40.80;;;;;;5026787;28;20100;-54
2021/12/01 08:55:24;;;;;;;1.45;0.50;;;22.70;41.40;;;;;;5027555;28;20040;-55
2021/12/01 08:57:50;;;;;;;1.48;0.30;;;22.90;40.70;;;;;;5023463;28;20049;-54
2021/12/01 09:00:19;;;;;;;1.70;0.50;;;22.90;40.50;;;;;;5025118;28;20033;-54
2021/12/01 09:02:45;;;;;;;0.63;0.35;;;23.00;40.40;;;;;;5019072;28;20364;-50
2021/12/01 09:05:11;;;;;;;1.17;0.63;;;23.10;40.40;;;;;;5022495;28;20025;-54
2021/12/01 09:07:37;;;;;;;1.63;0.50;;;23.10;40.20;;;;;;5026073;28;20033;-52
2021/12/01 09:10:04;;;;;;;0.80;0.40;;;23.20;40.10;;;;;;5025840;28;20076;-55
2021/12/01 09:12:30;;;;;;;0.45;0.40;;;23.30;40.00;;;;;;5023335;28;20415;-52
2021/12/01 09:14:57;;;;;;;1.52;0.60;;;23.40;40.00;;;;;;5025795;28;20120;-53
2021/12/01 09:17:23;;;;;;;0.65;0.40;;;23.40;39.80;;;;;;5020618;28;20037;-54
2021/12/01 09:19:50;;;;;;;1.55;0.80;;;23.50;39.80;;;;;;5019802;28;20156;-54
2021/12/01 09:22:17;;;;;;;1.40;0.40;;;23.50;39.70;;;;;;5022573;28;20364;-53
2021/12/01 09:24:44;;;;;;;1.15;0.60;;;23.60;39.60;;;;;;5019670;28;20333;-54
2021/12/01 09:27:11;;;;;;;1.30;0.47;;;23.60;39.50;;;;;;5028841;28;20034;-53
2021/12/01 09:29:37;;;;;;;0.80;0.50;;;23.70;39.50;;;;;;5026040;28;20029;-52
2021/12/01 09:32:03;;;;;;;1.15;0.43;;;23.70;39.30;;;;;;5021035;28;20029;-54
2021/12/01 09:34:29;;;;;;;1.15;0.40;;;23.80;39.20;;;;;;5027432;28;20116;-52
2021/12/01 09:36:56;;;;;;;0.88;0.43;;;23.90;39.20;;;;;;5023972;28;20171;-53
2021/12/01 09:39:23;;;;;;;0.95;0.65;;;23.90;39.00;;;;;;5020734;28;20038;-54
2021/12/01 09:41:49;;;;;;;1.77;0.60;;;23.90;38.90;;;;;;5002550;28;20368;-52
2021/12/01 09:44:15;;;;;;;1.58;0.60;;;24.00;38.80;;;;;;5024839;28;20026;-52
2021/12/01 09:46:41;;;;;;;1.10;0.63;;;24.00;38.70;;;;;;5023280;28;20334;-53
2021/12/01 09:49:07;;;;;;;1.20;0.50;;;24.00;38.60;;;;;;5020000;28;20034;-54
2021/12/01 09:51:33;;;;;;;1.15;0.60;;;24.10;38.60;;;;;;5023802;28;20393;-54
2021/12/01 09:54:00;;;;;;;1.05;0.55;;;24.10;38.60;;;;;;5014482;28;20069;-56
2021/12/01 09:56:27;;;;;;;1.55;0.52;;;24.10;38.50;;;;;;5016251;28;20422;-52
2021/12/01 09:58:53;;;;;;;2.28;0.68;;;24.10;38.40;;;;;;5014667;28;20029;-51
2021/12/01 10:01:22;;;;;;;1.63;0.60;;;24.20;38.40;;;;;;5014999;28;20042;-51
2021/12/01 10:03:48;;;;;;;1.50;0.47;;;24.20;38.30;;;;;;5014973;28;20038;-55
2021/12/01 10:06:19;;;;;;;1.10;0.57;;;24.20;38.30;;;;;;5023204;28;20037;-49
2021/12/01 10:08:46;;;;;;;1.33;0.55;;;24.20;38.20;;;;;;5034219;28;20437;-52
2021/12/01 10:11:17;;;;;;;1.50;0.57;;;24.20;38.20;;;;;;5025226;28;20034;-54
2021/12/01 10:13:50;;;;;;;1.40;0.60;;;24.20;38.10;;;;;;5014436;28;20465;-54
2021/12/01 10:16:18;;;;;;;1.65;0.50;;;24.20;38.10;;;;;;5030794;28;20037;-53
2021/12/01 10:18:49;;;;;;;1.42;0.50;;;24.20;38.00;;;;;;5034157;28;20045;-51
2021/12/01 10:21:21;;;;;;;2.15;0.68;;;24.20;38.00;;;;;;5032443;28;20103;-53
2021/12/01 10:23:49;;;;;;;1.38;0.70;;;24.20;38.00;;;;;;5019095;28;20095;-49
2021/12/01 10:26:30;;;;;;;1.38;0.60;;;24.20;38.00;;;;;;5014517;28;20030;-49
2021/12/01 10:29:05;;;;;;;1.35;0.43;;;24.20;37.90;;;;;;5033389;28;20381;-53
2021/12/01 10:31:40;;;;;;;1.52;0.60;;;24.10;37.90;;;;;;5037486;28;20045;-50
2021/12/01 10:34:31;;;;;;;0.98;0.43;;;24.10;38.50;;;;;;5021051;28;20052;-51
2021/12/01 10:37:26;;;;;;;1.42;0.63;;;24.10;37.90;;;;;;5018174;28;20115;-53
2021/12/01 10:40:10;;;;;;;0.95;0.50;;;24.10;37.80;;;;;;5017666;28;20033;-50
2021/12/01 10:42:51;;;;;;;1.00;0.50;;;24.10;37.80;;;;;;5019355;28;20064;-50
2021/12/01 10:45:18;;;;;;;1.17;0.60;;;24.00;37.80;;;;;;5016725;28;20480;-53
2021/12/01 10:47:44;;;;;;;1.60;0.50;;;24.00;38.50;;;;;;5031269;28;20334;-51
2021/12/01 10:50:13;;;;;;;1.17;0.70;;;24.00;37.80;;;;;;5017493;28;20045;-51
2021/12/01 10:52:42;;;;;;;0.73;0.40;;;23.90;37.70;;;;;;5018922;28;20132;-53
2021/12/01 10:55:15;;;;;;;0.73;0.52;;;23.90;37.70;;;;;;5017747;28;20049;-50
2021/12/01 10:57:44;;;;;;;0.75;0.35;;;23.90;37.60;;;;;;5035480;28;20099;-52
2021/12/01 11:00:27;;;;;;;0.93;0.50;;;23.90;38.30;;;;;;5017897;28;20053;-55
2021/12/01 11:03:05;;;;;;;1.60;0.50;;;23.90;37.50;;;;;;5037089;28;20029;-49
2021/12/01 11:05:32;;;;;;;1.70;0.65;;;23.80;37.50;;;;;;5035226;28;20030;-55
2021/12/01 11:08:21;;;;;;;1.13;0.50;;;23.80;37.50;;;;;;5030794;28;20037;-53
2021/12/01 11:10:55;;;;;;;1.40;0.43;;;23.80;37.40;;;;;;5027111;28;20123;-50
2021/12/01 11:13:23;;;;;;;1.10;0.60;;;23.80;37.50;;;;;;5033251;28;20029;-49
2021/12/01 11:15:54;;;;;;;0.88;0.50;;;23.70;37.50;;;;;;5031154;28;20022;-52
2021/12/01 11:18:23;;;;;;;2.17;0.45;;;23.70;37.60;;;;;;5017244;28;20457;-50
2021/12/01 11:20:57;;;;;;;1.10;0.47;;;23.70;37.70;;;;;;5024990;28;20029;-53
2021/12/01 11:23:36;;;;;;;0.82;0.40;;;23.70;37.80;;;;;;5015866;28;20120;-52
2021/12/01 11:26:11;;;;;;;0.68;0.28;;;23.70;37.80;;;;;;5026447;28;20040;-56
2021/12/01 11:28:39;;;;;;;1.20;0.60;;;23.70;37.80;;;;;;5022820;28;20038;-53
2021/12/01 11:31:29;;;;;;;1.10;0.50;;;23.60;37.80;;;;;;5020190;28;20029;-55
2021/12/01 11:33:57;;;;;;;0.95;0.52;;;23.70;37.70;;;;;;5028854;28;20059;-51
2021/12/01 11:36:31;;;;;;;1.65;0.52;;;23.60;37.70;;;;;;5022855;28;20357;-55
2021/12/01 11:39:00;;;;;;;1.40;0.60;;;23.60;37.60;;;;;;5029433;28;20100;-51
2021/12/01 11:41:28;;;;;;;1.15;0.60;;;23.60;37.60;;;;;;5021937;28;20021;-56
2021/12/01 11:43:57;;;;;;;1.25;0.55;;;23.60;37.60;;;;;;5024232;28;20030;-49
2021/12/01 11:46:24;;;;;;;1.35;0.60;;;23.50;37.50;;;;;;5022366;28;20380;-56
2021/12/01 11:48:53;;;;;;;0.52;0.35;;;23.50;37.50;;;;;;5023242;28;20026;-51
2021/12/01 11:51:36;;;;;;;1.45;0.70;;;23.50;37.40;;;;;;5017941;28;20520;-51
2021/12/01 11:54:19;;;;;;;0.80;0.30;;;23.50;37.30;;;;;;5024764;28;20044;-54
2021/12/01 11:56:58;;;;;;;1.20;0.68;;;23.50;37.40;;;;;;5025611;28;20338;-54
2021/12/01 11:59:29;;;;;;;1.00;0.50;;;23.50;37.30;;;;;;5019262;28;20069;-56
2021/12/01 12:01:56;;;;;;;1.05;0.40;;;23.50;37.40;;;;;;5016072;28;20416;-53
2021/12/01 12:04:23;;;;;;;1.13;0.68;;;23.50;37.40;;;;;;5018700;28;20495;-52
2021/12/01 12:06:57;;;;;;;1.38;0.60;;;23.50;37.30;;;;;;5019784;28;20342;-54
2021/12/01 12:09:25;;;;;;;1.38;0.55;;;23.40;37.20;;;;;;5024938;28;20026;-50
2021/12/01 12:11:59;;;;;;;1.63;0.70;;;23.40;37.20;;;;;;5028177;28;20029;-59
2021/12/01 12:14:31;;;;;;;0.88;0.50;;;23.50;37.20;;;;;;5021677;28;20029;-52
2021/12/01 12:17:20;;;;;;;1.33;0.47;;;23.40;37.20;;;;;;5020514;28;20380;-55
2021/12/01 12:19:56;;;;;;;1.85;0.50;;;23.50;37.30;;;;;;5018726;28;20037;-50
2021/12/01 12:22:37;;;;;;;6.00;2.50;;;23.40;37.50;;;;;;5023666;28;20034;-52
2021/12/01 12:25:07;;;;;;;12.93;5.72;;;23.40;38.00;;;;;;5022324;28;20024;-54
2021/12/01 12:27:41;;;;;;;18.05;7.45;;;23.30;39.50;;;;;;5023088;28;20045;-54
2021/12/01 12:30:28;;;;;;;19.17;7.83;;;23.40;41.00;;;;;;5024129;28;20749;-52
2021/12/01 12:33:19;;;;;;;17.98;7.85;;;23.40;42.40;;;;;;5022809;28;20033;-51
2021/12/01 12:35:51;;;;;;;16.67;7.40;;;23.40;43.30;;;;;;5024385;28;20025;-51
2021/12/01 12:38:17;;;;;;;13.98;6.03;;;23.40;43.30;;;;;;5020864;28;20041;-50
2021/12/01 12:40:45;;;;;;;11.57;5.30;;;23.40;43.00;;;;;;5022194;28;20504;-54
2021/12/01 12:43:12;;;;;;;9.88;4.10;;;23.40;42.40;;;;;;5022871;28;20108;-55
2021/12/01 12:45:41;;;;;;;6.97;3.38;;;23.40;41.80;;;;;;5024579;28;20448;-55
2021/12/01 12:48:27;;;;;;;5.57;2.50;;;23.30;41.20;;;;;;5020920;28;20099;-53
2021/12/01 12:51:10;;;;;;;4.78;1.98;;;23.40;40.80;;;;;;5024113;28;20461;-50
2021/12/01 12:53:59;;;;;;;3.58;1.77;;;23.30;40.40;;;;;;5018811;28;20030;-56
2021/12/01 12:56:27;;;;;;;4.85;1.95;;;23.30;40.20;;;;;;5024374;28;20049;-54
2021/12/01 12:59:32;;;;;;;3.90;1.92;;;23.20;40.00;;;;;;5019549;28;20045;-55